• Join FlightAware (Why Join?)
  • Login
  • US Flag 
03:58AM EDT


 

Airport Tracker/Info


-or-


 

Live Flight TrackerFlight Track Log ✈ N84XP ✈ 07-Jul-2013 ✈ KACB - KRMG

Flight Track Log - Related Links

Times and Time Zones

All times are in EDT time to prevent confusion due to time zone crossing. See the N84XP flight status page for this flight to view local times or setup timezone preferences in your user account.

Time Position Orientation Groundspeed Altitude Reporting Facility
EDT Latitude Longitude Course Direction KTS MPH feet Rate Location/Type
01:40PM 44.9058 -85.1847 174° South 164 189 3,400  Level Chicago Center
01:41PM 44.8600 -85.1781 174° South 164 189 4,900 1,380 Climbing Chicago Center
01:42PM 44.8133 -85.1767 179° South 167 192 6,300 1,380 Climbing Minneapolis Center
01:43PM 44.7633 -85.1719 176° South 172 198 7,800 1,560 Climbing Minneapolis Center
01:44PM 44.6994 -85.1689 178° South 186 214 9,600 1,680 Climbing Minneapolis Center
01:45PM 44.6469 -85.1697 181° South 189 217 11,300 1,500 Climbing Minneapolis Center
01:46PM 44.5958 -85.1708 181° South 186 214 12,800 1,380 Climbing Minneapolis Center
01:47PM 44.5439 -85.1728 182° South 186 214 14,200 1,380 Climbing Minneapolis Center
01:49PM 44.4886 -85.1750 182° South 195 224 15,700 1,320 Climbing Minneapolis Center
01:50PM 44.4311 -85.1756 180° South 204 235 17,000 1,500 Climbing Minneapolis Center
01:51PM 44.3600 -85.1806 183° South 211 243 18,800 1,500 Climbing Minneapolis Center
01:52PM 44.3036 -85.1847 183° South 204 235 20,200 1,200 Climbing Minneapolis Center
01:53PM 44.2458 -85.1878 182° South 206 237 21,300 1,080 Climbing Minneapolis Center
01:54PM 44.1881 -85.1897 181° South 207 238 22,500 1,080 Climbing Minneapolis Center
01:55PM 44.1294 -85.1906 181° South 210 242 23,600 960 Climbing Minneapolis Center
01:56PM 44.0711 -85.1917 181° South 210 242 24,600 960 Climbing Minneapolis Center
01:57PM 44.0025 -85.1906 179° South 214 246 25,600 900 Climbing Minneapolis Center
01:58PM 43.9431 -85.1906 180° South 215 247 26,500 660 Climbing Minneapolis Center
01:59PM 43.8803 -85.1911 180° South 221 254 27,000 240 Climbing Minneapolis Center
02:00PM 43.8117 -85.1817 174° South 240 276 27,000  Level Minneapolis Center
02:01PM 43.7367 -85.1633 170° South 264 304 27,000  Level Minneapolis Center
02:02PM 43.6444 -85.1628 180° South 276 318 27,000  Level Minneapolis Center
02:03PM 43.5678 -85.1722 185° South 277 319 27,000  Level Minneapolis Center
02:04PM 43.4911 -85.1792 184° South 276 318 27,000  Level Minneapolis Center
02:05PM 43.4147 -85.1853 183° South 275 316 27,000  Level Chicago Center
02:06PM 43.3375 -85.1911 183° South 278 320 27,000  Level Chicago Center
02:07PM 43.2608 -85.1844 176° South 276 318 27,000  Level Chicago Center
02:08PM 43.1694 -85.1878 182° South 275 316 27,000  Level Chicago Center
02:09PM 43.0925 -85.1914 182° South 278 320 27,000  Level Chicago Center
02:10PM 43.0153 -85.1806 174° South 279 321 27,000  Level Chicago Center
02:11PM 42.9367 -85.1853 183° South 283 326 27,000  Level Chicago Center
02:12PM 42.8567 -85.1908 183° South 289 333 27,000  Level Chicago Center
02:13PM 42.7778 -85.1789 174° South 288 331 27,000  Level Chicago Center
02:14PM 42.6981 -85.1844 183° South 287 330 27,000  Level Chicago Center
02:15PM 42.6028 -85.1911 183° South 289 333 27,000  Level Chicago Center
02:16PM 42.5253 -85.1764 172° South 284 327 27,000  Level Chicago Center
02:17PM 42.4464 -85.1850 185° South 285 328 27,000  Level Chicago Center
02:19PM 42.3661 -85.1975 187° South 288 331 27,000  Level Chicago Center
02:20PM 42.2883 -85.2219 193° South 287 330 27,000  Level Chicago Center
02:21PM 42.2097 -85.2494 195° South 289 333 27,000  Level Chicago Center
02:22PM 42.1156 -85.2819 194° South 290 334 27,000  Level Chicago Center
02:23PM 42.0386 -85.3100 195° South 288 331 27,000  Level Chicago Center
02:24PM 41.9686 -85.3356 195° South 284 327 27,000  Level Chicago Center
02:25PM 41.8919 -85.3633 195° South 285 328 27,000  Level Chicago Center
02:26PM 41.8008 -85.3950 195° South 283 326 27,000  Level Chicago Center
02:27PM 41.7222 -85.4053 186° South 283 326 27,000  Level Chicago Center
02:28PM 41.6339 -85.4072 181° South 289 333 27,000  Level Chicago Center
02:29PM 41.5561 -85.3911 171° South 285 328 27,000  Level Chicago Center
02:30PM 41.4744 -85.3936 181° South 288 331 27,000  Level Chicago Center
02:31PM 41.3953 -85.3992 183° South 286 329 27,000  Level Chicago Center
02:32PM 41.3147 -85.3994 180° South 289 333 27,000  Level Chicago Center
02:33PM 41.2361 -85.3947 177° South 285 328 27,000  Level Chicago Center
02:34PM 41.1411 -85.3894 178° South 286 329 27,000  Level Chicago Center
02:35PM 41.0617 -85.3839 177° South 286 329 27,000  Level Chicago Center
02:36PM 40.9822 -85.3775 177° South 285 328 27,000  Level Chicago Center
02:37PM 40.9025 -85.3722 177° South 286 329 27,000  Level Chicago Center
02:38PM 40.8228 -85.3644 176° South 288 331 27,000  Level Chicago Center
02:39PM 40.7417 -85.3578 176° South 291 335 27,000  Level Chicago Center
02:40PM 40.6544 -85.3519 177° South 289 333 27,000  Level Chicago Center
02:41PM 40.5733 -85.3439 176° South 291 335 27,000  Level Chicago Center
02:42PM 40.4925 -85.3450 181° South 292 336 27,000  Level Chicago Center
02:43PM 40.3953 -85.3483 181° South 292 336 27,000  Level Chicago Center
02:44PM 40.3139 -85.3494 181° South 292 336 27,000  Level Chicago Center
02:45PM 40.2339 -85.3503 180° South 289 333 27,000  Level Chicago Center
02:47PM 40.1361 -85.3464 178° South 288 331 27,000  Level Indianapolis Center
02:48PM 40.0369 -85.3425 178° South 296 341 27,000  Level Indianapolis Center
02:49PM 39.9569 -85.3422 180° South 289 333 27,000  Level Indianapolis Center
02:50PM 39.8753 -85.3339 176° South 292 336 27,000  Level Indianapolis Center
02:51PM 39.7950 -85.3358 181° South 289 333 27,000  Level Indianapolis Center
02:52PM 39.7144 -85.3333 179° South 289 333 27,000  Level Indianapolis Center
02:53PM 39.6350 -85.3231 174° South 288 331 27,000 -60 Level Indianapolis Center
02:54PM 39.5553 -85.3319 185° South 287 330 26,900  Descending Indianapolis Center
02:55PM 39.4572 -85.3231 176° South 294 338 27,000  Climbing Indianapolis Center
02:56PM 39.3781 -85.3133 175° South 290 334 27,000  Level Indianapolis Center
02:57PM 39.2994 -85.3247 186° South 286 329 27,000  Level Indianapolis Center
02:58PM 39.2200 -85.3178 176° South 288 331 27,000  Level Indianapolis Center
02:59PM 39.1408 -85.3033 172° South 289 333 27,000  Level Indianapolis Center
03:00PM 39.0611 -85.3114 184° South 286 329 27,000  Level Indianapolis Center
03:01PM 38.9642 -85.3094 179° South 289 333 27,000  Level Indianapolis Center
03:02PM 38.8825 -85.3042 177° South 294 338 27,000  Level Indianapolis Center
03:03PM 38.8014 -85.2992 177° South 293 337 27,000  Level Indianapolis Center
03:04PM 38.7194 -85.2908 175° South 294 338 27,000  Level Indianapolis Center
03:05PM 38.6381 -85.2833 176° South 295 339 27,000  Level Indianapolis Center
03:06PM 38.5419 -85.2789 178° South 292 336 27,000  Level Indianapolis Center
03:07PM 38.4617 -85.2761 178° South 286 329 27,000  Level Indianapolis Center
03:08PM 38.3828 -85.2761 180° South 285 328 27,000  Level Indianapolis Center
03:09PM 38.3050 -85.2747 179° South 280 322 27,000  Level Indianapolis Center
03:10PM 38.2283 -85.2736 179° South 275 316 27,000  Level Indianapolis Center
03:12PM 38.1500 -85.2725 179° South 277 319 27,000  Level Indianapolis Center
03:13PM 38.0714 -85.2686 178° South 281 323 27,000  Level Indianapolis Center
03:14PM 37.9769 -85.2644 178° South 282 325 27,000  Level Indianapolis Center
03:15PM 37.9019 -85.2581 176° South 275 316 27,000  Level Indianapolis Center
03:16PM 37.8283 -85.2542 178° South 273 314 27,000  Level Indianapolis Center
03:17PM 37.7508 -85.2519 179° South 276 318 27,000  Level Indianapolis Center
03:18PM 37.6747 -85.2486 178° South 274 315 27,000  Level Indianapolis Center
03:19PM 37.5867 -85.2447 178° South 271 312 27,000  Level Indianapolis Center
03:20PM 37.5092 -85.2461 181° South 276 318 27,000  Level Indianapolis Center
03:21PM 37.4361 -85.2431 178° South 266 306 27,000  Level Indianapolis Center
03:22PM 37.3597 -85.2408 179° South 271 312 27,000  Level Indianapolis Center
03:23PM 37.2842 -85.2386 179° South 272 313 27,000  Level Indianapolis Center
03:24PM 37.1969 -85.2342 178° South 268 308 27,000  Level Indianapolis Center
03:25PM 37.1211 -85.2311 178° South 270 311 27,000  Level Indianapolis Center
03:26PM 37.0464 -85.2281 178° South 268 308 27,000  Level Indianapolis Center
03:27PM 36.9675 -85.2239 178° South 273 314 27,000  Level Indianapolis Center
03:28PM 36.8931 -85.2200 178° South 269 310 27,000  Level Indianapolis Center
03:29PM 36.8172 -85.2164 178° South 270 311 27,000  Level Indianapolis Center
03:30PM 36.7403 -85.2139 179° South 276 318 27,000  Level Indianapolis Center
03:31PM 36.6644 -85.2128 179° South 274 315 27,000  Level Indianapolis Center
03:32PM 36.5728 -85.2142 181° South 274 315 27,000  Level Indianapolis Center
03:33PM 36.4964 -85.2172 182° South 274 315 27,000  Level Indianapolis Center
03:34PM 36.4194 -85.2203 182° South 277 319 27,000  Level Indianapolis Center
03:35PM 36.3433 -85.2186 179° South 275 316 27,000  Level Indianapolis Center
03:36PM 36.2667 -85.2175 179° South 274 315 27,000  Level Indianapolis Center
03:37PM 36.1903 -85.2175 180° South 274 315 27,000  Level Indianapolis Center
03:38PM 36.0975 -85.2164 179° South 277 319 27,000  Level Indianapolis Center
03:39PM 36.0672 -85.2178 182° South 273 314 27,000 -180 Level Atlanta Center
03:40PM 35.9881 -85.2142 178° South 273 314 26,800 -480 Descending Atlanta Center
03:41PM 35.9067 -85.2103 178° South 283 326 26,100 -660 Descending Atlanta Center
03:42PM 35.8211 -85.2092 179° South 297 342 25,500 -780 Descending Atlanta Center
03:43PM 35.7378 -85.2081 179° South 302 348 24,600 -780 Descending Atlanta Center
03:44PM 35.6503 -85.2067 179° South 309 356 24,000 -600 Descending Atlanta Center
03:45PM 35.5686 -85.2158 185° South 304 350 23,500 -1,140 Descending Atlanta Center
03:46PM 35.4831 -85.2169 181° South 304 350 21,800 -1,260 Descending Atlanta Center
03:47PM 35.3975 -85.2158 179° South 310 357 21,000 -420 Descending Atlanta Center
03:48PM 35.3225 -85.2200 183° South 295 339 21,000  Level Atlanta Center
03:49PM 35.2514 -85.2317 188° South 278 320 21,000  Level Atlanta Center
03:50PM 35.1803 -85.2483 191° South 266 306 21,000  Level Atlanta Center
03:51PM 35.1072 -85.2600 187° South 266 306 21,000  Level Atlanta Center
03:52PM 35.0319 -85.2639 182° South 266 306 21,000 -180 Level Atlanta Center
03:53PM 34.9569 -85.2478 170° South 271 312 20,700 -1,020 Descending Atlanta Center
03:54PM 34.8739 -85.2261 168° South 286 329 19,000 -1,920 Descending Atlanta Center
03:55PM 34.7947 -85.1922 161° South 298 343 16,900 -2,220 Descending Atlanta Center
03:56PM 34.7158 -85.1633 163° South 298 343 14,600 -6,480 Descending Atlanta Center
03:57PM 34.6386 -85.1447 169° South 292 336 4,000 -5,340 Descending Atlanta Center
03:58PM 34.5636 -85.1386 176° South 286 329 4,000 1,680 Level Atlanta Center
03:59PM 34.4906 -85.1478 186° South 286 329 7,400 480 Climbing Atlanta Center
04:00PM 34.4194 -85.1544 184° South 271 312 5,000 -1,800 Descending Atlanta Center
04:01PM 34.3547 -85.1661 188° South 255 293 3,900 -660 Descending Atlanta Center
04:02PM 34.2983 -85.1578 173° South 221 254 3,700 -180 Descending Atlanta Center
04:03PM 34.2461 -85.1772 197° South 199 229 3,600  Descending Atlanta Center
04:04PM 34.1875 -85.1889 189° South 199 229 3,700 -60 Climbing Atlanta Center
04:05PM 34.1353 -85.2008 191° South 199 229 3,500 -300 Descending Atlanta Center
04:06PM 34.0936 -85.1903 168° South 167 192 3,100 -180 Descending Atlanta Center
04:07PM 34.1356 -85.1681 24° Northeast 70 81 3,200  Climbing Atlanta Center
04:08PM 34.1833 -85.1789 349° North 128 147 3,100 -120 Descending Atlanta Center
04:09PM 34.2253 -85.1744 North 150 173 3,000 -120 Descending Atlanta Center